Lady Rosebud — 3FAF5 — position and weather

sailwx.info

Track history (hours):
 
Tides and Currents Weather Stations Pressure Air Temp Water Temp Dewpoint Dewpoint Depression Visibility Wind Speed Wind Dir Waves Ship Positions

Lady Rosebud

Last reported at 2017-Dec-17 08:49 UTC. Time now 2017-Dec-17 17:55 UTC.
Position N 28°56' W 012°54'.

Length 143 m; draft 8.3 m.

Type: Ship. MMSI: 351698000.

Date/timePositionNaut miles runAvg speedWind from/ knotsBaromVisibWave heightAir tempDewpointWater temp
2017-Dec-17 08:49N 28°56' W 012°54'717.1
2017-Dec-17 08:24N 28°50' W 012°59'817.2
2017-Dec-17 07:55N 28°43' W 013°04'817.4
2017-Dec-17 07:29N 28°37' W 013°09'3317.4
2017-Dec-17 05:35N 28°09' W 013°30'217.5
2017-Dec-17 05:27N 28°07' W 013°31'  
2017-Dec-14 01:49N 09°35' W 016°06'618.4
2017-Dec-14 01:30N 09°30' W 016°03'1318.4
2017-Dec-14 00:48N 09°21' W 015°54'518.3
2017-Dec-14 00:30N 09°17' W 015°50'2418.2
2017-Dec-13 23:11N 09°02' W 015°31'318.2
2017-Dec-13 23:00N 09°00' W 015°28'918.1
2017-Dec-13 22:30N 08°54' W 015°22'3118.2
2017-Dec-13 20:48N 08°31' W 015°00'1018.2
2017-Dec-13 20:15N 08°24' W 014°53'518.4
2017-Dec-13 20:00N 08°21' W 014°50'  
2017-Dec-10 12:19N 05°19' W 000°06'618.6
2017-Dec-10 12:01N 05°23' W 000°02'918.4
2017-Dec-10 11:30N 05°31' E 000°03'713.3
2017-Dec-10 11:00N 05°37' E 000°02'2 3.9
2017-Dec-10 10:30N 05°38' E 000°01'0 0.0
2017-Dec-10 10:00N 05°38' E 000°01'0 0.0
2017-Dec-10 09:30N 05°38' E 000°01'0 0.0
2017-Dec-10 09:00N 05°38' E 000°01'0 0.0
2017-Dec-10 08:30N 05°38' E 000°01'0 0.0
2017-Dec-10 08:00N 05°38' E 000°01'0 0.0
2017-Dec-10 07:30N 05°38' E 000°01'0 0.0
2017-Dec-10 07:00N 05°38' E 000°01'0 0.0
2017-Dec-10 06:30N 05°38' E 000°01'0 0.0
2017-Dec-10 06:00N 05°38' E 000°01'0 0.0
2017-Dec-10 05:30N 05°38' E 000°01'0 0.0
2017-Dec-10 05:00N 05°38' E 000°01'0 0.0
2017-Dec-10 04:30N 05°38' E 000°01'0 0.0
2017-Dec-10 04:00N 05°38' E 000°01'0 0.0
2017-Dec-10 03:30N 05°38' E 000°01'0 0.0
2017-Dec-10 03:00N 05°38' E 000°01'0 0.0
2017-Dec-10 02:30N 05°38' E 000°01'0 0.0
2017-Dec-10 02:00N 05°38' E 000°01'0 0.0
2017-Dec-10 01:30N 05°38' E 000°01'0 0.0
2017-Dec-10 01:00N 05°38' E 000°01'0 0.0
2017-Dec-10 00:30N 05°38' E 000°01'0 0.0
2017-Dec-10 00:00N 05°38' E 000°01'0 0.0
2017-Dec-09 23:30N 05°38' E 000°01'0 0.0
2017-Dec-09 23:00N 05°38' E 000°01'0 0.0
2017-Dec-09 22:30N 05°38' E 000°01'0 0.0
2017-Dec-09 22:00N 05°38' E 000°01'0 0.0
2017-Dec-09 21:30N 05°38' E 000°01'0 0.0
2017-Dec-09 21:00N 05°38' E 000°01'1 1.9
2017-Dec-09 20:30N 05°38' E 000°01'3 5.1
2017-Dec-09 20:00N 05°36' E 000°03'510.7
2017-Dec-09 19:30N 05°32' E 000°07'612.3
2017-Dec-09 19:00N 05°29' E 000°12'917.5
2017-Dec-09 18:30N 05°25' E 000°20'917.4
2017-Dec-09 18:00N 05°21' E 000°28'917.5
2017-Dec-09 17:30N 05°17' E 000°36'917.4
2017-Dec-09 16:59N 05°14' E 000°44'  
Track history (hours):
 
Tides and Currents Weather Stations Pressure Air Temp Water Temp Dewpoint Dewpoint Depression Visibility Wind Speed Wind Dir Waves Ship Positions

Lady Rosebud

Last reported at 2017-Dec-17 08:49 UTC. Time now 2017-Dec-17 17:55 UTC.
Position N 28°56' W 012°54'.

Length 143 m; draft 8.3 m.

Type: Ship. MMSI: 351698000.

Date/timePositionNaut miles runAvg speedWind from/ knotsBaromVisibWave heightAir tempDewpointWater temp
2017-Dec-17 08:49N 28°56' W 012°54'717.1
2017-Dec-17 08:24N 28°50' W 012°59'817.2
2017-Dec-17 07:55N 28°43' W 013°04'817.4
2017-Dec-17 07:29N 28°37' W 013°09'3317.4
2017-Dec-17 05:35N 28°09' W 013°30'217.5
2017-Dec-17 05:27N 28°07' W 013°31'  
2017-Dec-14 01:49N 09°35' W 016°06'618.4
2017-Dec-14 01:30N 09°30' W 016°03'1318.4
2017-Dec-14 00:48N 09°21' W 015°54'518.3
2017-Dec-14 00:30N 09°17' W 015°50'2418.2
2017-Dec-13 23:11N 09°02' W 015°31'318.2
2017-Dec-13 23:00N 09°00' W 015°28'918.1
2017-Dec-13 22:30N 08°54' W 015°22'3118.2
2017-Dec-13 20:48N 08°31' W 015°00'1018.2
2017-Dec-13 20:15N 08°24' W 014°53'518.4
2017-Dec-13 20:00N 08°21' W 014°50'  
2017-Dec-10 12:19N 05°19' W 000°06'618.6
2017-Dec-10 12:01N 05°23' W 000°02'918.4
2017-Dec-10 11:30N 05°31' E 000°03'713.3
2017-Dec-10 11:00N 05°37' E 000°02'2 3.9
2017-Dec-10 10:30N 05°38' E 000°01'0 0.0
2017-Dec-10 10:00N 05°38' E 000°01'0 0.0
2017-Dec-10 09:30N 05°38' E 000°01'0 0.0
2017-Dec-10 09:00N 05°38' E 000°01'0 0.0
2017-Dec-10 08:30N 05°38' E 000°01'0 0.0
2017-Dec-10 08:00N 05°38' E 000°01'0 0.0
2017-Dec-10 07:30N 05°38' E 000°01'0 0.0
2017-Dec-10 07:00N 05°38' E 000°01'0 0.0
2017-Dec-10 06:30N 05°38' E 000°01'0 0.0
2017-Dec-10 06:00N 05°38' E 000°01'0 0.0
2017-Dec-10 05:30N 05°38' E 000°01'0 0.0
2017-Dec-10 05:00N 05°38' E 000°01'0 0.0
2017-Dec-10 04:30N 05°38' E 000°01'0 0.0
2017-Dec-10 04:00N 05°38' E 000°01'0 0.0
2017-Dec-10 03:30N 05°38' E 000°01'0 0.0
2017-Dec-10 03:00N 05°38' E 000°01'0 0.0
2017-Dec-10 02:30N 05°38' E 000°01'0 0.0
2017-Dec-10 02:00N 05°38' E 000°01'0 0.0
2017-Dec-10 01:30N 05°38' E 000°01'0 0.0
2017-Dec-10 01:00N 05°38' E 000°01'0 0.0
2017-Dec-10 00:30N 05°38' E 000°01'0 0.0
2017-Dec-10 00:00N 05°38' E 000°01'0 0.0
2017-Dec-09 23:30N 05°38' E 000°01'0 0.0
2017-Dec-09 23:00N 05°38' E 000°01'0 0.0
2017-Dec-09 22:30N 05°38' E 000°01'0 0.0
2017-Dec-09 22:00N 05°38' E 000°01'0 0.0
2017-Dec-09 21:30N 05°38' E 000°01'0 0.0
2017-Dec-09 21:00N 05°38' E 000°01'1 1.9
2017-Dec-09 20:30N 05°38' E 000°01'3 5.1
2017-Dec-09 20:00N 05°36' E 000°03'510.7
2017-Dec-09 19:30N 05°32' E 000°07'612.3
2017-Dec-09 19:00N 05°29' E 000°12'917.5
2017-Dec-09 18:30N 05°25' E 000°20'917.4
2017-Dec-09 18:00N 05°21' E 000°28'917.5
2017-Dec-09 17:30N 05°17' E 000°36'917.4
2017-Dec-09 16:59N 05°14' E 000°44'  

Dump ship's entire track history